createdAt,value
2023-10-06T00:00:18.483Z,92.000000
2023-10-06T00:05:24.565Z,92.000000
2023-10-06T00:10:25.115Z,93.000000
2023-10-06T00:15:24.567Z,93.000000
2023-10-06T00:20:24.870Z,93.000000
2023-10-06T00:25:16.450Z,93.000000
2023-10-06T00:30:16.484Z,93.000000
2023-10-06T00:35:24.746Z,93.000000
2023-10-06T00:40:18.460Z,93.000000
2023-10-06T00:45:18.562Z,93.000000
2023-10-06T00:50:18.574Z,93.000000
2023-10-06T00:55:18.590Z,93.000000
2023-10-06T01:00:24.815Z,93.000000
2023-10-06T01:05:18.533Z,93.000000
2023-10-06T01:10:24.671Z,93.000000
2023-10-06T01:15:18.537Z,93.000000
2023-10-06T01:20:16.655Z,93.000000
2023-10-06T01:25:18.598Z,93.000000
2023-10-06T01:30:19.210Z,93.000000
2023-10-06T01:35:25.440Z,93.000000
2023-10-06T01:40:18.601Z,93.000000
2023-10-06T01:45:24.788Z,93.000000
2023-10-06T01:50:24.764Z,93.000000
2023-10-06T01:55:24.763Z,93.000000
2023-10-06T02:00:24.832Z,93.000000
2023-10-06T02:05:18.616Z,93.000000
2023-10-06T02:10:16.679Z,93.000000
2023-10-06T02:15:16.529Z,93.000000
2023-10-06T02:20:18.649Z,93.000000
2023-10-06T02:25:24.826Z,93.000000
2023-10-06T02:30:24.886Z,93.000000
2023-10-06T02:35:18.889Z,93.000000
2023-10-06T02:40:18.681Z,93.000000
2023-10-06T02:45:24.901Z,93.000000
2023-10-06T02:50:24.854Z,94.000000
2023-10-06T02:55:24.741Z,94.000000
2023-10-06T03:00:24.937Z,94.000000
2023-10-06T03:05:16.765Z,94.000000
2023-10-06T03:10:16.725Z,94.000000
2023-10-06T03:15:25.055Z,94.000000
2023-10-06T03:20:24.994Z,94.000000
2023-10-06T03:25:25.034Z,94.000000
2023-10-06T03:30:24.941Z,94.000000
2023-10-06T03:35:25.025Z,95.000000
2023-10-06T03:40:24.912Z,95.000000
2023-10-06T03:45:18.811Z,95.000000
2023-10-06T03:50:24.885Z,94.000000
2023-10-06T03:55:16.875Z,94.000000
2023-10-06T04:00:18.145Z,94.000000
2023-10-06T04:05:24.217Z,94.000000
2023-10-06T04:10:16.103Z,94.000000
2023-10-06T04:15:15.959Z,94.000000
2023-10-06T04:20:18.100Z,94.000000
2023-10-06T04:25:18.055Z,94.000000
2023-10-06T04:30:18.027Z,94.000000
2023-10-06T04:35:24.238Z,94.000000
2023-10-06T04:40:24.269Z,94.000000
2023-10-06T04:45:24.265Z,94.000000
2023-10-06T04:50:24.264Z,94.000000
2023-10-06T04:55:18.173Z,94.000000
2023-10-06T05:00:24.319Z,94.000000
2023-10-06T05:05:16.236Z,94.000000
2023-10-06T05:10:16.069Z,94.000000
2023-10-06T05:15:24.313Z,94.000000
2023-10-06T05:20:24.351Z,94.000000
2023-10-06T05:25:18.108Z,94.000000
2023-10-06T05:30:18.102Z,93.000000
2023-10-06T05:35:24.264Z,93.000000
2023-10-06T05:40:18.143Z,93.000000
2023-10-06T05:45:18.093Z,93.000000
2023-10-06T05:50:24.483Z,93.000000
2023-10-06T05:55:24.324Z,93.000000
2023-10-06T06:00:16.193Z,93.000000
2023-10-06T06:05:24.319Z,93.000000
2023-10-06T06:10:24.307Z,93.000000
2023-10-06T06:15:18.053Z,93.000000
2023-10-06T06:20:18.768Z,93.000000
2023-10-06T06:25:24.361Z,93.000000
2023-10-06T06:30:18.150Z,93.000000
2023-10-06T06:35:18.224Z,93.000000
2023-10-06T06:40:18.250Z,92.000000
2023-10-06T06:45:18.231Z,92.000000
2023-10-06T06:50:16.277Z,92.000000
2023-10-06T06:55:16.306Z,93.000000
2023-10-06T07:00:24.524Z,92.000000
2023-10-06T07:05:24.301Z,92.000000
2023-10-06T07:10:24.355Z,93.000000
2023-10-06T07:15:24.352Z,92.000000
2023-10-06T07:20:24.343Z,92.000000
2023-10-06T07:25:24.426Z,92.000000
2023-10-06T07:30:24.384Z,93.000000
2023-10-06T07:35:18.404Z,93.000000
2023-10-06T07:40:24.498Z,93.000000
2023-10-06T07:45:16.365Z,93.000000
2023-10-06T07:50:16.585Z,93.000000
2023-10-06T07:55:24.612Z,93.000000
2023-10-06T08:00:18.267Z,93.000000
2023-10-06T08:05:26.863Z,93.000000
2023-10-06T08:10:24.556Z,93.000000
2023-10-06T08:15:18.439Z,93.000000
2023-10-06T08:20:24.519Z,93.000000
2023-10-06T08:25:25.154Z,93.000000
2023-10-06T08:30:24.434Z,93.000000
2023-10-06T08:35:16.549Z,93.000000
2023-10-06T08:40:16.412Z,93.000000
2023-10-06T08:45:18.399Z,93.000000
2023-10-06T08:50:24.572Z,93.000000
2023-10-06T08:55:24.456Z,93.000000
2023-10-06T09:00:24.521Z,93.000000
2023-10-06T09:05:24.610Z,93.000000
2023-10-06T09:10:18.410Z,93.000000
2023-10-06T09:15:24.561Z,93.000000
2023-10-06T09:20:30.568Z,93.000000
2023-10-06T09:25:24.640Z,93.000000
2023-10-06T09:30:16.519Z,93.000000
2023-10-06T09:35:16.567Z,93.000000
2023-10-06T09:40:18.528Z,93.000000
2023-10-06T09:45:18.525Z,93.000000
2023-10-06T09:50:24.708Z,93.000000
2023-10-06T09:55:24.581Z,92.000000
2023-10-06T10:00:24.730Z,92.000000
2023-10-06T10:05:24.616Z,92.000000
2023-10-06T10:10:24.572Z,92.000000
2023-10-06T10:15:18.383Z,92.000000
2023-10-06T10:20:24.795Z,92.000000
2023-10-06T10:25:25.111Z,92.000000
2023-10-06T10:30:18.498Z,92.000000
2023-10-06T10:35:19.009Z,92.000000
2023-10-06T10:40:18.554Z,92.000000
2023-10-06T10:45:24.648Z,93.000000
2023-10-06T10:50:18.492Z,93.000000
2023-10-06T10:55:18.590Z,93.000000
2023-10-06T11:00:18.796Z,92.000000
2023-10-06T11:05:24.694Z,92.000000
2023-10-06T11:10:24.701Z,92.000000
2023-10-06T11:15:16.597Z,92.000000
2023-10-06T11:20:16.648Z,92.000000
2023-10-06T11:25:24.862Z,92.000000
2023-10-06T11:30:24.824Z,92.000000
2023-10-06T11:35:24.819Z,92.000000
2023-10-06T11:40:24.754Z,92.000000
2023-10-06T11:45:24.821Z,92.000000
2023-10-06T11:50:24.925Z,92.000000
2023-10-06T11:55:24.889Z,92.000000
2023-10-06T12:00:24.716Z,92.000000
2023-10-06T12:05:18.745Z,92.000000
2023-10-06T12:10:16.698Z,92.000000
2023-10-06T12:15:16.594Z,92.000000
2023-10-06T12:20:18.676Z,92.000000
2023-10-06T12:25:25.050Z,92.000000
2023-10-06T12:30:18.669Z,92.000000
2023-10-06T12:35:24.937Z,92.000000
2023-10-06T12:40:18.666Z,92.000000
2023-10-06T12:45:18.781Z,92.000000
2023-10-06T12:50:18.881Z,91.000000
2023-10-06T12:55:18.801Z,91.000000
2023-10-06T13:00:18.686Z,91.000000
2023-10-06T13:05:17.010Z,91.000000
2023-10-06T13:10:24.920Z,91.000000
2023-10-06T13:15:24.981Z,91.000000
2023-10-06T13:20:25.015Z,91.000000
2023-10-06T13:25:19.244Z,91.000000
2023-10-06T13:30:25.089Z,91.000000
2023-10-06T13:35:18.863Z,91.000000
2023-10-06T13:40:18.892Z,90.000000
2023-10-06T13:45:25.019Z,90.000000
2023-10-06T13:50:25.197Z,88.000000
2023-10-06T13:55:16.861Z,87.000000
2023-10-06T14:00:16.872Z,87.000000
2023-10-06T14:05:24.967Z,86.000000
2023-10-06T14:10:25.112Z,86.000000
2023-10-06T14:15:24.940Z,86.000000
2023-10-06T14:20:18.929Z,86.000000
2023-10-06T14:25:25.030Z,85.000000
2023-10-06T14:30:18.784Z,84.000000
2023-10-06T14:35:25.332Z,84.000000
2023-10-06T14:40:18.789Z,83.000000
2023-10-06T14:45:25.078Z,84.000000
2023-10-06T14:50:16.958Z,84.000000
2023-10-06T14:55:17.171Z,83.000000
2023-10-06T15:00:25.213Z,84.000000
2023-10-06T15:05:25.195Z,82.000000
2023-10-06T15:10:25.060Z,83.000000
2023-10-06T15:15:25.093Z,83.000000
2023-10-06T15:20:18.958Z,83.000000
2023-10-06T15:25:18.953Z,82.000000
2023-10-06T15:30:25.047Z,82.000000
2023-10-06T15:35:25.149Z,82.000000
2023-10-06T15:40:16.982Z,83.000000
2023-10-06T15:45:17.039Z,83.000000
2023-10-06T15:50:22.888Z,82.000000
2023-10-06T15:55:25.269Z,83.000000
2023-10-06T16:00:56.259Z,83.000000
2023-10-06T16:05:18.998Z,82.000000
2023-10-06T16:10:18.958Z,82.000000
2023-10-06T16:15:25.114Z,82.000000
2023-10-06T16:20:19.001Z,82.000000
2023-10-06T16:25:25.368Z,82.000000
2023-10-06T16:30:25.265Z,83.000000
2023-10-06T16:35:17.090Z,84.000000
2023-10-06T16:40:17.062Z,83.000000
2023-10-06T16:45:25.312Z,82.000000
2023-10-06T16:50:25.287Z,82.000000
2023-10-06T16:55:19.977Z,82.000000
2023-10-06T17:00:25.435Z,83.000000
2023-10-06T17:05:25.320Z,83.000000
2023-10-06T17:10:25.266Z,84.000000
2023-10-06T17:15:25.232Z,84.000000
2023-10-06T17:20:25.235Z,84.000000
2023-10-06T17:25:19.069Z,84.000000
2023-10-06T17:30:17.176Z,84.000000
2023-10-06T17:35:25.401Z,85.000000
2023-10-06T17:40:25.368Z,85.000000
2023-10-06T17:45:25.324Z,85.000000
2023-10-06T17:50:25.370Z,85.000000
2023-10-06T17:55:19.093Z,85.000000
2023-10-06T18:00:25.325Z,85.000000
2023-10-06T18:05:25.370Z,84.000000
2023-10-06T18:10:19.197Z,84.000000
2023-10-06T18:15:25.371Z,84.000000
2023-10-06T18:20:24.249Z,85.000000
2023-10-06T18:25:24.311Z,84.000000
2023-10-06T18:30:24.353Z,84.000000
2023-10-06T18:35:18.100Z,84.000000
2023-10-06T18:40:16.294Z,84.000000
2023-10-06T18:45:16.219Z,85.000000
2023-10-06T18:50:24.345Z,85.000000
2023-10-06T18:55:24.639Z,85.000000
2023-10-06T19:00:18.128Z,84.000000
2023-10-06T19:05:24.293Z,84.000000
2023-10-06T19:10:24.414Z,84.000000
2023-10-06T19:15:18.403Z,83.000000
2023-10-06T19:20:18.278Z,83.000000
2023-10-06T19:25:24.448Z,83.000000
2023-10-06T19:30:24.560Z,83.000000
2023-10-06T19:35:16.186Z,83.000000
2023-10-06T19:40:18.263Z,83.000000
2023-10-06T19:45:24.482Z,84.000000
2023-10-06T19:50:24.319Z,84.000000
2023-10-06T19:55:24.427Z,84.000000
2023-10-06T20:00:24.385Z,85.000000
2023-10-06T20:05:24.367Z,85.000000
2023-10-06T20:10:24.500Z,86.000000
2023-10-06T20:15:24.482Z,86.000000
2023-10-06T20:20:18.307Z,86.000000
2023-10-06T20:25:16.376Z,86.000000
2023-10-06T20:30:16.215Z,87.000000
2023-10-06T20:35:18.335Z,87.000000
2023-10-06T20:40:18.441Z,87.000000
2023-10-06T20:45:18.248Z,87.000000
2023-10-06T20:50:18.351Z,87.000000
2023-10-06T20:55:24.449Z,88.000000
2023-10-06T21:00:18.255Z,88.000000
2023-10-06T21:05:24.452Z,88.000000
2023-10-06T21:10:24.519Z,89.000000
2023-10-06T21:15:18.379Z,89.000000
2023-10-06T21:20:16.752Z,89.000000
2023-10-06T21:25:16.435Z,89.000000
2023-10-06T21:30:18.388Z,90.000000
2023-10-06T21:35:24.456Z,90.000000
2023-10-06T21:40:24.654Z,90.000000
2023-10-06T21:45:18.344Z,90.000000
2023-10-06T21:50:18.543Z,90.000000
2023-10-06T21:55:18.498Z,90.000000
2023-10-06T22:00:24.534Z,91.000000
2023-10-06T22:05:24.548Z,91.000000
2023-10-06T22:10:16.423Z,91.000000
2023-10-06T22:15:16.341Z,91.000000
2023-10-06T22:20:24.582Z,91.000000
2023-10-06T22:25:24.769Z,92.000000
2023-10-06T22:30:24.567Z,92.000000
2023-10-06T22:35:24.684Z,92.000000
2023-10-06T22:40:24.614Z,92.000000
2023-10-06T22:45:24.584Z,92.000000
2023-10-06T22:50:24.707Z,92.000000
2023-10-06T22:55:24.612Z,92.000000
2023-10-06T23:00:24.680Z,92.000000
2023-10-06T23:05:16.568Z,92.000000
2023-10-06T23:10:16.556Z,92.000000
2023-10-06T23:15:18.628Z,92.000000
2023-10-06T23:20:24.785Z,93.000000
2023-10-06T23:25:24.659Z,93.000000
2023-10-06T23:30:24.752Z,93.000000
2023-10-06T23:35:24.627Z,93.000000
2023-10-06T23:40:24.739Z,93.000000
2023-10-06T23:45:18.592Z,93.000000
2023-10-06T23:50:18.584Z,93.000000
2023-10-06T23:55:24.845Z,93.000000
